createdAt,value
2019-03-29T00:01:57.782Z,78.13
2019-03-29T00:04:36.807Z,78.07
2019-03-29T00:07:10.425Z,77.89
2019-03-29T00:09:44.064Z,77.93
2019-03-29T00:12:17.748Z,77.73
2019-03-29T00:14:51.344Z,77.78
2019-03-29T00:17:25.258Z,77.54
2019-03-29T00:19:58.889Z,77.36
2019-03-29T00:22:32.585Z,77.22
2019-03-29T00:25:07.087Z,76.96
2019-03-29T00:27:41.079Z,76.82
2019-03-29T00:30:15.551Z,76.59
2019-03-29T00:32:49.339Z,76.40
2019-03-29T00:35:23.088Z,75.83
2019-03-29T00:38:02.196Z,75.51
2019-03-29T00:40:35.831Z,75.62
2019-03-29T00:43:09.449Z,75.03
2019-03-29T00:45:43.202Z,74.79
2019-03-29T00:48:18.258Z,74.53
2019-03-29T00:50:51.880Z,74.35
2019-03-29T00:53:25.612Z,73.91
2019-03-29T00:56:00.766Z,73.84
2019-03-29T00:58:35.883Z,74.12
2019-03-29T01:01:11.029Z,74.00
2019-03-29T01:03:46.090Z,74.10
2019-03-29T01:06:21.272Z,74.25
2019-03-29T01:09:01.003Z,74.39
2019-03-29T01:11:42.263Z,74.58
2019-03-29T01:14:21.020Z,74.81
2019-03-29T01:17:00.427Z,74.76
2019-03-29T01:19:39.922Z,74.82
2019-03-29T01:22:18.889Z,74.91
2019-03-29T01:24:58.047Z,75.17
2019-03-29T01:27:37.934Z,75.17
2019-03-29T01:30:16.788Z,75.10
2019-03-29T01:32:56.283Z,74.96
2019-03-29T01:35:35.977Z,74.70
2019-03-29T01:38:21.791Z,74.57
2019-03-29T01:40:56.649Z,74.47
2019-03-29T01:43:35.290Z,74.40
2019-03-29T01:46:15.594Z,74.34
2019-03-29T01:48:55.336Z,74.48
2019-03-29T01:51:35.189Z,74.44
2019-03-29T01:54:14.887Z,74.20
2019-03-29T01:56:53.904Z,74.28
2019-03-29T01:59:33.316Z,74.06
2019-03-29T02:02:11.973Z,74.04
2019-03-29T02:04:50.959Z,73.83
2019-03-29T02:07:30.300Z,73.47
2019-03-29T02:10:11.708Z,73.43
2019-03-29T02:12:50.271Z,73.53
2019-03-29T02:15:29.658Z,72.98
2019-03-29T02:18:08.374Z,72.12
2019-03-29T02:20:47.439Z,71.35
2019-03-29T02:23:27.129Z,71.27
2019-03-29T02:26:06.550Z,70.88
2019-03-29T02:28:46.375Z,70.64
2019-03-29T02:31:28.600Z,69.83
2019-03-29T02:34:06.630Z,69.49
2019-03-29T02:36:46.285Z,69.19
2019-03-29T02:39:27.030Z,68.13
2019-03-29T02:42:01.008Z,68.09
2019-03-29T02:44:35.003Z,68.23
2019-03-29T02:47:08.998Z,67.40
2019-03-29T02:49:42.693Z,67.24
2019-03-29T02:52:16.299Z,66.93
2019-03-29T02:54:49.972Z,66.49
2019-03-29T02:57:23.588Z,65.96
2019-03-29T02:59:57.160Z,66.30
2019-03-29T03:02:30.783Z,66.29
2019-03-29T03:05:04.393Z,66.12
2019-03-29T03:07:38.089Z,65.79
2019-03-29T03:10:17.482Z,65.77
2019-03-29T03:12:51.170Z,65.95
2019-03-29T03:15:24.889Z,66.00
2019-03-29T03:17:58.509Z,65.33
2019-03-29T03:20:32.205Z,65.70
2019-03-29T03:23:05.848Z,66.25
2019-03-29T03:25:40.550Z,67.05
2019-03-29T03:28:14.202Z,67.74
2019-03-29T03:30:47.924Z,69.27
2019-03-29T03:33:21.638Z,69.62
2019-03-29T03:35:55.367Z,69.80
2019-03-29T03:38:29.183Z,70.50
2019-03-29T03:41:04.012Z,70.87
2019-03-29T03:43:43.088Z,71.08
2019-03-29T03:46:22.881Z,71.23
2019-03-29T03:48:56.577Z,71.00
2019-03-29T03:51:30.281Z,70.83
2019-03-29T03:54:04.233Z,70.77
2019-03-29T03:56:38.728Z,70.91
2019-03-29T03:59:12.663Z,71.07
2019-03-29T04:01:46.361Z,71.20
2019-03-29T04:04:20.083Z,71.60
2019-03-29T04:06:53.795Z,71.93
2019-03-29T04:09:27.522Z,72.17
2019-03-29T04:12:01.181Z,72.39
2019-03-29T04:14:34.890Z,72.81
2019-03-29T04:17:08.680Z,73.24
2019-03-29T04:19:42.326Z,73.59
2019-03-29T04:22:15.985Z,74.11
2019-03-29T04:24:49.691Z,74.59
2019-03-29T04:27:23.283Z,74.92
2019-03-29T04:29:56.957Z,75.22
2019-03-29T04:32:30.575Z,75.43
2019-03-29T04:35:04.314Z,75.61
2019-03-29T04:37:37.952Z,75.87
2019-03-29T04:40:11.685Z,76.00
2019-03-29T04:42:45.290Z,76.10
2019-03-29T04:45:18.998Z,76.17
2019-03-29T04:47:52.616Z,76.07
2019-03-29T04:50:32.706Z,76.18
2019-03-29T04:53:11.353Z,76.23
2019-03-29T04:55:50.896Z,76.63
2019-03-29T04:58:36.007Z,76.86
2019-03-29T05:01:17.355Z,76.84
2019-03-29T05:03:49.328Z,76.76
2019-03-29T05:06:28.434Z,76.92
2019-03-29T05:09:09.825Z,77.00
2019-03-29T05:11:49.014Z,77.01
2019-03-29T05:14:28.185Z,76.86
2019-03-29T05:17:07.346Z,76.89
2019-03-29T05:19:46.546Z,76.88
2019-03-29T05:22:25.695Z,76.94
2019-03-29T05:25:04.784Z,77.16
2019-03-29T05:27:38.408Z,77.13
2019-03-29T05:30:21.560Z,77.17
2019-03-29T05:32:56.283Z,77.25
2019-03-29T05:35:30.155Z,77.28
2019-03-29T05:38:32.319Z,77.21
2019-03-29T05:41:22.414Z,77.40
2019-03-29T05:44:01.476Z,77.47
2019-03-29T05:47:01.133Z,77.47
2019-03-29T05:49:47.581Z,77.48
2019-03-29T05:52:21.255Z,77.36
2019-03-29T05:54:54.955Z,77.21
2019-03-29T05:57:28.743Z,77.16
2019-03-29T06:00:02.695Z,77.13
2019-03-29T06:02:36.367Z,77.10
2019-03-29T06:05:10.265Z,77.13
2019-03-29T06:07:43.965Z,77.14
2019-03-29T06:10:17.573Z,76.87
2019-03-29T06:12:51.261Z,76.66
2019-03-29T06:15:24.973Z,76.73
2019-03-29T06:17:58.650Z,76.39
2019-03-29T06:20:32.246Z,76.05
2019-03-29T06:23:05.847Z,75.90
2019-03-29T06:25:39.458Z,75.70
2019-03-29T06:28:14.125Z,75.65
2019-03-29T06:30:50.024Z,75.67
2019-03-29T06:33:23.732Z,75.26
2019-03-29T06:35:59.691Z,75.32
2019-03-29T06:38:35.624Z,74.76
2019-03-29T06:41:09.234Z,73.73
2019-03-29T06:43:42.901Z,73.75
2019-03-29T06:46:16.533Z,73.45
2019-03-29T06:48:50.191Z,73.36
2019-03-29T06:51:23.931Z,72.57
2019-03-29T06:53:57.641Z,72.06
2019-03-29T06:56:31.292Z,72.23
2019-03-29T06:59:05.020Z,71.58
2019-03-29T07:01:38.640Z,70.84
2019-03-29T07:04:12.335Z,69.27
2019-03-29T07:06:45.973Z,69.17
2019-03-29T07:09:19.974Z,68.56
2019-03-29T07:11:53.671Z,67.94
2019-03-29T07:14:27.318Z,66.47
2019-03-29T07:17:00.941Z,65.94
2019-03-29T07:19:34.588Z,66.25
2019-03-29T07:22:08.217Z,65.64
2019-03-29T07:24:41.907Z,65.98
2019-03-29T07:27:15.621Z,62.31
2019-03-29T07:29:49.252Z,61.69
2019-03-29T07:32:23.050Z,61.63
2019-03-29T07:34:56.707Z,62.36
2019-03-29T07:37:30.336Z,62.86
2019-03-29T07:40:04.016Z,62.06
2019-03-29T07:42:37.690Z,61.85
2019-03-29T07:45:11.583Z,60.86
2019-03-29T07:47:45.152Z,60.88
2019-03-29T07:50:19.207Z,60.94
2019-03-29T07:52:53.014Z,60.30
2019-03-29T07:55:26.665Z,60.15
2019-03-29T07:58:00.340Z,59.17
2019-03-29T08:00:33.966Z,59.07
2019-03-29T08:03:07.571Z,58.76
2019-03-29T08:05:41.197Z,59.46
2019-03-29T08:08:23.923Z,57.82
2019-03-29T08:10:53.447Z,58.58
2019-03-29T08:13:25.576Z,56.89
2019-03-29T08:15:59.610Z,56.54
2019-03-29T08:18:33.232Z,56.66
2019-03-29T08:21:06.902Z,58.12
2019-03-29T08:23:40.960Z,57.73
2019-03-29T08:26:14.652Z,57.38
2019-03-29T08:28:49.900Z,56.92
2019-03-29T08:31:23.579Z,57.60
2019-03-29T08:33:57.206Z,56.92
2019-03-29T08:36:30.876Z,56.89
2019-03-29T08:39:06.136Z,57.09
2019-03-29T08:41:39.809Z,57.30
2019-03-29T08:44:13.462Z,57.27
2019-03-29T08:46:47.182Z,56.14
2019-03-29T08:49:20.840Z,57.10
2019-03-29T08:51:54.424Z,56.88
2019-03-29T08:54:28.035Z,57.32
2019-03-29T08:57:01.645Z,57.57
2019-03-29T08:59:35.323Z,57.46
2019-03-29T09:02:09.310Z,58.17
2019-03-29T09:04:44.440Z,57.75
2019-03-29T09:07:18.467Z,57.96
2019-03-29T09:09:52.191Z,57.85
2019-03-29T09:12:25.829Z,57.31
2019-03-29T09:15:03.261Z,57.35
2019-03-29T09:17:34.933Z,56.50
2019-03-29T09:20:10.839Z,57.45
2019-03-29T09:22:44.489Z,57.28
2019-03-29T09:25:20.916Z,56.71
2019-03-29T09:27:53.664Z,56.89
2019-03-29T09:30:27.324Z,57.79
2019-03-29T09:33:00.983Z,57.90
2019-03-29T09:35:34.659Z,57.53
2019-03-29T09:38:08.293Z,58.14
2019-03-29T09:40:41.876Z,57.54
2019-03-29T09:43:15.559Z,57.43
2019-03-29T09:45:49.157Z,57.38
2019-03-29T09:48:22.714Z,58.02
2019-03-29T09:50:56.345Z,57.37
2019-03-29T09:53:31.741Z,57.35
2019-03-29T09:56:05.536Z,57.83
2019-03-29T09:58:39.155Z,57.61
2019-03-29T10:01:12.827Z,57.29
2019-03-29T10:03:46.549Z,57.40
2019-03-29T10:06:20.348Z,57.30
2019-03-29T10:08:55.558Z,57.55
2019-03-29T10:11:29.783Z,57.65
2019-03-29T10:14:03.447Z,57.13
2019-03-29T10:16:37.085Z,57.29
2019-03-29T10:19:10.695Z,56.89
2019-03-29T10:21:44.346Z,58.21
2019-03-29T10:24:17.955Z,57.76
2019-03-29T10:26:51.559Z,57.92
2019-03-29T10:29:25.231Z,57.18
2019-03-29T10:31:58.879Z,57.91
2019-03-29T10:34:37.390Z,57.89
2019-03-29T10:37:10.082Z,57.72
2019-03-29T10:39:45.094Z,57.38
2019-03-29T10:42:18.693Z,57.83
2019-03-29T10:44:52.305Z,58.23
2019-03-29T10:47:42.542Z,57.86
2019-03-29T10:50:01.395Z,57.44
2019-03-29T10:52:35.055Z,56.39
2019-03-29T10:55:08.979Z,56.03
2019-03-29T10:57:42.573Z,56.15
2019-03-29T11:00:24.106Z,55.68
2019-03-29T11:02:57.788Z,55.22
2019-03-29T11:05:31.468Z,54.56
2019-03-29T11:08:05.225Z,54.23
2019-03-29T11:10:39.909Z,53.55
2019-03-29T11:13:14.447Z,52.88
2019-03-29T11:15:48.356Z,52.72
2019-03-29T11:18:22.033Z,52.67
2019-03-29T11:20:55.672Z,52.79
2019-03-29T11:23:29.264Z,52.35
2019-03-29T11:26:03.018Z,52.06
2019-03-29T11:28:36.615Z,52.26
2019-03-29T11:31:10.204Z,52.16
2019-03-29T11:33:45.587Z,52.08
2019-03-29T11:36:19.592Z,51.61
2019-03-29T11:38:54.421Z,51.71
2019-03-29T11:41:30.007Z,52.88
2019-03-29T11:44:03.625Z,52.73
2019-03-29T11:46:38.268Z,52.10
2019-03-29T11:49:12.209Z,52.12
2019-03-29T11:51:49.135Z,52.86
2019-03-29T11:54:22.784Z,53.43
2019-03-29T11:56:56.464Z,53.22
2019-03-29T11:59:31.233Z,52.88
2019-03-29T12:02:04.934Z,53.29
2019-03-29T12:04:38.646Z,53.01
2019-03-29T12:07:14.101Z,53.41
2019-03-29T12:09:49.131Z,52.30
2019-03-29T12:12:22.808Z,52.69
2019-03-29T12:14:56.410Z,52.48
2019-03-29T12:17:30.035Z,52.62
2019-03-29T12:20:05.000Z,51.15
2019-03-29T12:22:38.672Z,50.89
2019-03-29T12:25:12.353Z,50.24
2019-03-29T12:27:46.020Z,49.78
2019-03-29T12:30:31.429Z,49.89
2019-03-29T12:32:55.322Z,50.46
2019-03-29T12:35:29.002Z,49.29
2019-03-29T12:38:04.317Z,49.37
2019-03-29T12:40:38.121Z,49.25
2019-03-29T12:43:12.778Z,49.18
2019-03-29T12:45:46.533Z,49.70
2019-03-29T12:48:20.106Z,49.24
2019-03-29T12:50:53.729Z,48.45
2019-03-29T12:53:27.354Z,48.35
2019-03-29T12:56:00.972Z,48.86
2019-03-29T12:58:35.827Z,49.11
2019-03-29T13:01:09.671Z,49.12
2019-03-29T13:03:43.457Z,48.93
2019-03-29T13:06:17.098Z,48.93
2019-03-29T13:08:50.774Z,49.12
2019-03-29T13:11:24.500Z,49.86
2019-03-29T13:14:09.636Z,49.51
2019-03-29T13:16:33.547Z,50.24
2019-03-29T13:19:07.152Z,50.97
2019-03-29T13:21:41.799Z,50.91
2019-03-29T13:24:16.094Z,50.92
2019-03-29T13:26:50.089Z,51.28
2019-03-29T13:29:23.716Z,51.31
2019-03-29T13:31:57.392Z,51.50
2019-03-29T13:34:31.030Z,51.75
2019-03-29T13:37:04.621Z,51.83
2019-03-29T13:39:38.304Z,52.39
2019-03-29T13:42:11.955Z,52.71
2019-03-29T13:44:45.960Z,52.89
2019-03-29T13:47:20.780Z,52.94
2019-03-29T13:49:54.453Z,53.30
2019-03-29T13:52:31.111Z,54.45
2019-03-29T13:55:04.375Z,54.52
2019-03-29T13:57:37.952Z,54.92
2019-03-29T14:00:13.728Z,54.19
2019-03-29T14:02:47.329Z,54.59
2019-03-29T14:05:20.968Z,55.10
2019-03-29T14:07:54.633Z,54.67
2019-03-29T14:10:28.223Z,55.61
2019-03-29T14:13:03.097Z,55.33
2019-03-29T14:15:36.825Z,55.80
2019-03-29T14:18:10.597Z,55.67
2019-03-29T14:20:44.383Z,56.25
2019-03-29T14:23:18.116Z,56.09
2019-03-29T14:25:51.734Z,55.94
2019-03-29T14:28:25.491Z,56.40
2019-03-29T14:30:59.212Z,56.34
2019-03-29T14:33:32.907Z,56.97
2019-03-29T14:36:06.627Z,56.86
2019-03-29T14:38:40.269Z,57.01
2019-03-29T14:41:13.891Z,56.87
2019-03-29T14:43:47.509Z,57.04
2019-03-29T14:46:21.237Z,56.41
2019-03-29T14:48:54.960Z,54.93
2019-03-29T14:51:28.665Z,54.54
2019-03-29T14:54:02.682Z,54.49
2019-03-29T14:56:36.279Z,54.47
2019-03-29T14:59:10.035Z,54.21
2019-03-29T15:01:43.706Z,54.13
2019-03-29T15:04:17.880Z,55.08
2019-03-29T15:06:51.597Z,55.09
2019-03-29T15:09:25.789Z,54.33
2019-03-29T15:11:59.615Z,54.68
2019-03-29T15:14:35.466Z,54.76
2019-03-29T15:17:09.241Z,54.79
2019-03-29T15:19:42.890Z,55.06
2019-03-29T15:22:16.641Z,54.81
2019-03-29T15:24:50.356Z,54.66
2019-03-29T15:27:24.056Z,55.21
2019-03-29T15:29:57.819Z,55.46
2019-03-29T15:32:31.545Z,56.29
2019-03-29T15:35:05.197Z,57.18
2019-03-29T15:37:38.856Z,57.72
2019-03-29T15:40:12.909Z,57.96
2019-03-29T15:42:46.665Z,57.59
2019-03-29T15:45:21.937Z,57.50
2019-03-29T15:47:55.583Z,57.91
2019-03-29T15:50:29.248Z,58.55
2019-03-29T15:53:03.039Z,58.34
2019-03-29T15:55:36.789Z,58.72
2019-03-29T15:58:10.660Z,57.86
2019-03-29T16:00:44.749Z,58.12
2019-03-29T16:03:18.739Z,58.18
2019-03-29T16:05:52.736Z,57.51
2019-03-29T16:08:26.614Z,57.26
2019-03-29T16:11:00.466Z,57.90
2019-03-29T16:13:36.446Z,57.20
2019-03-29T16:16:10.286Z,57.87
2019-03-29T16:18:46.803Z,58.21
2019-03-29T16:21:20.663Z,57.87
2019-03-29T16:23:54.640Z,58.42
2019-03-29T16:26:28.508Z,57.86
2019-03-29T16:29:02.344Z,58.01
2019-03-29T16:31:37.583Z,58.16
2019-03-29T16:34:11.236Z,58.14
2019-03-29T16:36:47.915Z,57.85
2019-03-29T16:39:21.602Z,58.43
2019-03-29T16:41:55.282Z,58.52
2019-03-29T16:44:29.192Z,59.28
2019-03-29T16:47:03.124Z,59.97
2019-03-29T16:49:37.136Z,59.42
2019-03-29T16:52:12.239Z,59.83
2019-03-29T16:54:46.307Z,60.04
2019-03-29T16:57:21.021Z,59.99
2019-03-29T16:59:54.788Z,60.06
2019-03-29T17:02:29.295Z,60.18
2019-03-29T17:05:03.188Z,60.11
2019-03-29T17:07:37.208Z,60.14
2019-03-29T17:10:11.652Z,60.39
2019-03-29T17:12:45.576Z,60.06
2019-03-29T17:15:19.371Z,60.43
2019-03-29T17:17:53.151Z,60.03
2019-03-29T17:20:26.854Z,60.64
2019-03-29T17:23:00.723Z,60.79
2019-03-29T17:25:35.187Z,61.10
2019-03-29T17:28:08.981Z,61.08
2019-03-29T17:30:47.328Z,61.24
2019-03-29T17:33:22.481Z,61.72
2019-03-29T17:35:57.375Z,61.97
2019-03-29T17:38:31.345Z,61.76
2019-03-29T17:41:05.193Z,61.94
2019-03-29T17:43:39.060Z,61.90
2019-03-29T17:46:16.437Z,61.97
2019-03-29T17:48:48.365Z,61.88
2019-03-29T17:51:23.433Z,61.95
2019-03-29T17:54:00.297Z,62.26
2019-03-29T17:56:34.321Z,62.36
2019-03-29T17:59:08.328Z,62.44
2019-03-29T18:01:42.019Z,61.91
2019-03-29T18:04:15.902Z,61.63
2019-03-29T18:06:49.692Z,61.75
2019-03-29T18:09:23.462Z,61.33
2019-03-29T18:11:57.253Z,61.48
2019-03-29T18:14:31.516Z,61.72
2019-03-29T18:17:05.435Z,61.64
2019-03-29T18:19:39.285Z,61.95
2019-03-29T18:22:12.967Z,62.03
2019-03-29T18:24:47.335Z,62.37
2019-03-29T18:27:22.113Z,62.39
2019-03-29T18:29:55.923Z,62.61
2019-03-29T18:32:29.991Z,62.56
2019-03-29T18:35:03.762Z,63.06
2019-03-29T18:37:37.639Z,63.06
2019-03-29T18:40:27.032Z,63.19
2019-03-29T18:43:00.981Z,63.43
2019-03-29T18:45:34.823Z,63.51
2019-03-29T18:48:08.767Z,62.52
2019-03-29T18:50:42.594Z,62.93
2019-03-29T18:53:16.833Z,62.91
2019-03-29T18:55:50.529Z,62.94
2019-03-29T18:58:24.276Z,62.86
2019-03-29T19:00:58.032Z,62.63
2019-03-29T19:03:31.869Z,62.54
2019-03-29T19:06:05.976Z,61.99
2019-03-29T19:08:40.087Z,61.82
2019-03-29T19:11:14.048Z,61.96
2019-03-29T19:13:48.119Z,61.87
2019-03-29T19:16:21.923Z,61.65
2019-03-29T19:19:09.173Z,61.93
2019-03-29T19:21:31.621Z,61.90
2019-03-29T19:24:05.304Z,61.99
2019-03-29T19:26:39.291Z,62.00
2019-03-29T19:29:13.220Z,62.14
2019-03-29T19:31:47.234Z,62.23
2019-03-29T19:34:21.191Z,62.60
2019-03-29T19:36:55.229Z,62.51
2019-03-29T19:39:29.099Z,62.39
2019-03-29T19:42:03.025Z,62.47
2019-03-29T19:44:36.805Z,62.74
2019-03-29T19:47:13.844Z,62.89
2019-03-29T19:49:46.333Z,62.78
2019-03-29T19:52:20.227Z,62.38
2019-03-29T19:54:53.931Z,62.80
2019-03-29T19:57:27.746Z,62.95
2019-03-29T20:00:01.651Z,63.47
2019-03-29T20:02:35.467Z,63.49
2019-03-29T20:05:27.724Z,63.56
2019-03-29T20:08:01.775Z,63.74
2019-03-29T20:10:37.701Z,63.88
2019-03-29T20:13:11.378Z,63.90
2019-03-29T20:15:45.203Z,64.02
2019-03-29T20:18:20.064Z,63.95
2019-03-29T20:20:54.118Z,64.22
2019-03-29T20:23:27.813Z,64.13
2019-03-29T20:26:01.837Z,64.29
2019-03-29T20:28:38.393Z,64.61
2019-03-29T20:31:12.499Z,64.47
2019-03-29T20:33:46.676Z,64.48
2019-03-29T20:36:23.383Z,64.57
2019-03-29T20:38:57.176Z,64.80
2019-03-29T20:41:31.005Z,64.75
2019-03-29T20:44:04.868Z,64.86
2019-03-29T20:46:38.869Z,64.81
2019-03-29T20:49:12.740Z,65.04
2019-03-29T20:51:47.373Z,65.17
2019-03-29T20:54:21.303Z,65.09
2019-03-29T20:56:55.161Z,65.19
2019-03-29T20:59:29.298Z,65.25
2019-03-29T21:02:03.266Z,65.39
2019-03-29T21:04:37.343Z,65.40
2019-03-29T21:07:12.950Z,65.48
2019-03-29T21:09:55.585Z,65.63
2019-03-29T21:12:29.407Z,65.61
2019-03-29T21:15:04.272Z,65.78
2019-03-29T21:17:39.527Z,65.83
2019-03-29T21:20:14.285Z,65.83
2019-03-29T21:22:48.578Z,65.64
2019-03-29T21:25:22.268Z,65.79
2019-03-29T21:27:55.956Z,66.05
2019-03-29T21:30:30.104Z,66.00
2019-03-29T21:33:06.803Z,66.07
2019-03-29T21:35:40.706Z,66.24
2019-03-29T21:38:14.470Z,66.36
2019-03-29T21:40:48.157Z,66.56
2019-03-29T21:43:22.321Z,66.59
2019-03-29T21:45:56.228Z,66.77
2019-03-29T21:48:30.034Z,66.89
2019-03-29T21:51:04.523Z,66.74
2019-03-29T21:53:38.448Z,66.89
2019-03-29T21:56:12.239Z,66.89
2019-03-29T21:58:46.240Z,67.03
2019-03-29T22:01:20.216Z,67.16
2019-03-29T22:03:55.652Z,67.27
2019-03-29T22:06:29.441Z,67.42
2019-03-29T22:09:06.597Z,67.44
2019-03-29T22:11:41.935Z,67.61
2019-03-29T22:14:15.828Z,67.66
2019-03-29T22:16:49.715Z,67.68
2019-03-29T22:19:23.476Z,67.92
2019-03-29T22:21:57.126Z,68.09
2019-03-29T22:24:30.746Z,68.26
2019-03-29T22:27:04.476Z,68.41
2019-03-29T22:29:38.174Z,68.55
2019-03-29T22:32:12.023Z,68.65
2019-03-29T22:34:45.886Z,68.58
2019-03-29T22:37:19.767Z,68.75
2019-03-29T22:39:53.564Z,68.77
2019-03-29T22:42:28.424Z,68.66
2019-03-29T22:45:02.293Z,69.13
2019-03-29T22:47:36.154Z,69.17
2019-03-29T22:50:10.578Z,69.54
2019-03-29T22:52:44.657Z,70.03
2019-03-29T22:55:18.445Z,69.77
2019-03-29T22:57:52.554Z,69.76
2019-03-29T23:00:36.648Z,70.58
2019-03-29T23:03:12.094Z,70.60
2019-03-29T23:05:45.792Z,70.80
2019-03-29T23:08:19.503Z,70.37
2019-03-29T23:10:53.232Z,70.58
2019-03-29T23:13:27.058Z,71.10
2019-03-29T23:16:00.960Z,70.39
2019-03-29T23:18:34.761Z,70.62
2019-03-29T23:21:08.427Z,70.83
2019-03-29T23:23:42.040Z,70.50
2019-03-29T23:26:15.855Z,71.04
2019-03-29T23:28:51.117Z,71.41
2019-03-29T23:31:24.868Z,72.16
2019-03-29T23:33:58.705Z,72.43
2019-03-29T23:36:32.404Z,72.49
2019-03-29T23:39:07.018Z,72.77
2019-03-29T23:41:40.703Z,73.00
2019-03-29T23:44:14.483Z,73.50
2019-03-29T23:46:49.237Z,73.55
2019-03-29T23:49:22.970Z,73.06
2019-03-29T23:51:56.668Z,73.66
2019-03-29T23:54:30.398Z,73.46
2019-03-29T23:57:04.020Z,73.69
2019-03-29T23:59:37.705Z,73.66
